sensor_id;sensor_type;location;lat;lon;timestamp;pressure;altitude;pressure_sealevel;temperature;humidity
49055;BME280;35405;52.344;14.530;2022-09-01T05:17:15;101552.66;;;10.07;100.00
49055;BME280;35405;52.344;14.530;2022-09-01T05:19:43;101550.59;;;10.29;100.00
49055;BME280;35405;52.344;14.530;2022-09-01T05:22:11;101562.06;;;10.47;100.00
49055;BME280;35405;52.344;14.530;2022-09-01T05:24:37;101562.31;;;10.56;100.00
49055;BME280;35405;52.344;14.530;2022-09-01T05:27:05;101552.81;;;10.73;100.00
49055;BME280;35405;52.344;14.530;2022-09-01T05:29:31;101547.13;;;10.90;100.00
49055;BME280;35405;52.344;14.530;2022-09-01T05:31:56;101555.81;;;10.87;100.00
49055;BME280;35405;52.344;14.530;2022-09-01T05:34:22;101549.56;;;10.87;100.00
49055;BME280;35405;52.344;14.530;2022-09-01T05:36:53;101548.22;;;11.05;100.00
49055;BME280;35405;52.344;14.530;2022-09-01T05:39:22;101554.19;;;11.17;100.00
49055;BME280;35405;52.344;14.530;2022-09-01T05:41:47;101551.69;;;11.31;100.00
49055;BME280;35405;52.344;14.530;2022-09-01T05:44:16;101559.31;;;11.44;100.00
49055;BME280;35405;52.344;14.530;2022-09-01T05:46:42;101558.97;;;11.61;100.00
49055;BME280;35405;52.344;14.530;2022-09-01T05:49:08;101554.63;;;11.60;100.00
49055;BME280;35405;52.344;14.530;2022-09-01T05:51:38;101555.69;;;11.69;100.00
49055;BME280;35405;52.344;14.530;2022-09-01T05:54:04;101549.13;;;11.75;100.00
49055;BME280;35405;52.344;14.530;2022-09-01T05:56:32;101557.03;;;11.87;100.00
49055;BME280;35405;52.344;14.530;2022-09-01T05:58:59;101568.19;;;11.96;100.00
49055;BME280;35405;52.344;14.530;2022-09-01T06:01:26;101562.66;;;12.11;100.00
49055;BME280;35405;52.344;14.530;2022-09-01T06:03:52;101558.81;;;12.12;100.00
49055;BME280;35405;52.344;14.530;2022-09-01T06:06:29;101566.72;;;12.13;100.00
49055;BME280;35405;52.344;14.530;2022-09-01T06:08:54;101563.22;;;12.08;100.00
49055;BME280;35405;52.344;14.530;2022-09-01T06:11:23;101565.94;;;12.13;100.00
49055;BME280;35405;52.344;14.530;2022-09-01T06:13:49;101562.31;;;12.23;100.00
49055;BME280;35405;52.344;14.530;2022-09-01T06:16:16;101572.44;;;12.12;100.00
49055;BME280;35405;52.344;14.530;2022-09-01T06:18:43;101572.00;;;11.95;100.00
49055;BME280;35405;52.344;14.530;2022-09-01T06:21:10;101572.84;;;11.80;100.00
49055;BME280;35405;52.344;14.530;2022-09-01T06:23:42;101578.28;;;11.80;100.00
49055;BME280;35405;52.344;14.530;2022-09-01T06:26:17;101584.56;;;11.80;100.00
49055;BME280;35405;52.344;14.530;2022-09-01T06:28:43;101581.84;;;11.70;100.00
49055;BME280;35405;52.344;14.530;2022-09-01T06:31:09;101581.59;;;11.66;100.00
49055;BME280;35405;52.344;14.530;2022-09-01T06:33:36;101596.56;;;11.64;100.00
49055;BME280;35405;52.344;14.530;2022-09-01T06:36:01;101592.72;;;11.80;100.00
49055;BME280;35405;52.344;14.530;2022-09-01T06:38:28;101604.84;;;12.24;100.00
49055;BME280;35405;52.344;14.530;2022-09-01T06:41:00;101592.47;;;12.47;100.00
49055;BME280;35405;52.344;14.530;2022-09-01T06:43:26;101592.91;;;12.64;100.00
49055;BME280;35405;52.344;14.530;2022-09-01T06:45:54;101599.44;;;12.68;100.00
49055;BME280;35405;52.344;14.530;2022-09-01T06:48:20;101600.91;;;12.45;100.00
49055;BME280;35405;52.344;14.530;2022-09-01T06:50:47;101605.88;;;12.38;100.00
49055;BME280;35405;52.344;14.530;2022-09-01T06:53:13;101607.78;;;12.43;100.00
49055;BME280;35405;52.344;14.530;2022-09-01T06:55:43;101609.47;;;12.33;100.00
49055;BME280;35405;52.344;14.530;2022-09-01T06:58:10;101606.91;;;12.52;100.00
49055;BME280;35405;52.344;14.530;2022-09-01T07:00:38;101611.84;;;12.90;100.00
49055;BME280;35405;52.344;14.530;2022-09-01T07:03:07;101601.19;;;13.22;100.00
49055;BME280;35405;52.344;14.530;2022-09-01T07:05:33;101597.06;;;13.30;100.00
49055;BME280;35405;52.344;14.530;2022-09-01T07:08:03;101593.09;;;13.46;100.00
49055;BME280;35405;52.344;14.530;2022-09-01T07:10:31;101591.88;;;13.58;100.00
49055;BME280;35405;52.344;14.530;2022-09-01T07:12:56;101591.88;;;13.58;100.00
49055;BME280;35405;52.344;14.530;2022-09-01T07:15:25;101591.88;;;13.82;100.00
49055;BME280;35405;52.344;14.530;2022-09-01T07:17:55;101599.03;;;14.02;100.00
49055;BME280;35405;52.344;14.530;2022-09-01T07:20:25;101605.19;;;14.12;100.00
49055;BME280;35405;52.344;14.530;2022-09-01T07:22:51;101601.25;;;14.00;100.00
49055;BME280;35405;52.344;14.530;2022-09-01T07:25:17;101596.13;;;14.17;100.00
49055;BME280;35405;52.344;14.530;2022-09-01T07:27:44;101597.00;;;14.31;100.00
49055;BME280;35405;52.344;14.530;2022-09-01T07:30:18;101588.59;;;14.47;100.00
49055;BME280;35405;52.344;14.530;2022-09-01T07:32:44;101592.66;;;14.49;100.00
49055;BME280;35405;52.344;14.530;2022-09-01T07:35:11;101602.91;;;14.62;100.00
49055;BME280;35405;52.344;14.530;2022-09-01T07:37:36;101599.78;;;14.88;100.00
49055;BME280;35405;52.344;14.530;2022-09-01T07:40:06;101598.13;;;15.06;100.00
49055;BME280;35405;52.344;14.530;2022-09-01T07:42:33;101591.91;;;15.00;100.00
49055;BME280;35405;52.344;14.530;2022-09-01T07:44:58;101593.44;;;15.06;100.00
49055;BME280;35405;52.344;14.530;2022-09-01T07:47:24;101592.97;;;15.04;100.00
49055;BME280;35405;52.344;14.530;2022-09-01T07:49:49;101595.59;;;15.09;100.00
49055;BME280;35405;52.344;14.530;2022-09-01T07:52:14;101591.53;;;15.07;100.00
49055;BME280;35405;52.344;14.530;2022-09-01T07:54:40;101592.59;;;15.25;100.00
49055;BME280;35405;52.344;14.530;2022-09-01T07:57:08;101592.22;;;15.45;100.00
49055;BME280;35405;52.344;14.530;2022-09-01T07:59:36;101593.88;;;15.46;100.00
49055;BME280;35405;52.344;14.530;2022-09-01T08:02:03;101593.34;;;15.44;100.00
49055;BME280;35405;52.344;14.530;2022-09-01T08:04:29;101589.28;;;15.42;100.00
49055;BME280;35405;52.344;14.530;2022-09-01T08:06:55;101585.41;;;15.43;100.00
49055;BME280;35405;52.344;14.530;2022-09-01T08:09:21;101583.84;;;15.55;100.00
49055;BME280;35405;52.344;14.530;2022-09-01T08:11:46;101589.66;;;15.68;100.00
49055;BME280;35405;52.344;14.530;2022-09-01T08:14:11;101582.25;;;15.68;100.00
49055;BME280;35405;52.344;14.530;2022-09-01T08:16:37;101586.09;;;15.81;100.00
49055;BME280;35405;52.344;14.530;2022-09-01T08:19:02;101591.97;;;15.88;100.00
49055;BME280;35405;52.344;14.530;2022-09-01T08:21:28;101594.94;;;16.06;100.00
49055;BME280;35405;52.344;14.530;2022-09-01T08:23:59;101603.22;;;16.42;100.00
49055;BME280;35405;52.344;14.530;2022-09-01T08:26:28;101598.31;;;16.53;100.00
49055;BME280;35405;52.344;14.530;2022-09-01T08:28:53;101603.56;;;16.63;100.00
49055;BME280;35405;52.344;14.530;2022-09-01T08:31:19;101598.97;;;16.72;100.00
49055;BME280;35405;52.344;14.530;2022-09-01T08:33:45;101598.59;;;16.79;100.00
49055;BME280;35405;52.344;14.530;2022-09-01T08:36:12;101598.56;;;17.01;100.00
49055;BME280;35405;52.344;14.530;2022-09-01T08:38:38;101590.31;;;17.01;100.00
49055;BME280;35405;52.344;14.530;2022-09-01T08:41:04;101591.19;;;17.10;100.00
49055;BME280;35405;52.344;14.530;2022-09-01T08:43:36;101598.88;;;17.22;100.00
49055;BME280;35405;52.344;14.530;2022-09-01T08:46:18;101593.88;;;17.24;100.00
49055;BME280;35405;52.344;14.530;2022-09-01T08:48:49;101595.72;;;17.37;100.00
49055;BME280;35405;52.344;14.530;2022-09-01T08:53:45;101589.50;;;17.54;100.00
49055;BME280;35405;52.344;14.530;2022-09-01T08:56:11;101588.41;;;17.64;100.00
49055;BME280;35405;52.344;14.530;2022-09-01T08:58:37;101587.81;;;17.76;100.00
49055;BME280;35405;52.344;14.530;2022-09-01T09:01:09;101580.31;;;17.90;100.00
49055;BME280;35405;52.344;14.530;2022-09-01T09:03:39;101577.72;;;17.94;100.00
49055;BME280;35405;52.344;14.530;2022-09-01T09:11:04;101578.41;;;18.08;100.00
49055;BME280;35405;52.344;14.530;2022-09-01T09:16:16;101581.00;;;18.22;100.00
49055;BME280;35405;52.344;14.530;2022-09-01T09:18:53;101572.06;;;18.08;100.00
49055;BME280;35405;52.344;14.530;2022-09-01T09:24:09;101577.78;;;18.37;100.00
49055;BME280;35405;52.344;14.530;2022-09-01T09:26:35;101574.88;;;18.34;100.00
49055;BME280;35405;52.344;14.530;2022-09-01T09:29:00;101585.56;;;18.52;100.00
49055;BME280;35405;52.344;14.530;2022-09-01T09:33:57;101565.16;;;18.45;100.00
49055;BME280;35405;52.344;14.530;2022-09-01T09:36:28;101565.19;;;18.54;100.00
49055;BME280;35405;52.344;14.530;2022-09-01T09:39:07;101561.41;;;18.41;100.00
49055;BME280;35405;52.344;14.530;2022-09-01T09:41:33;101554.94;;;18.28;100.00
49055;BME280;35405;52.344;14.530;2022-09-01T09:44:02;101553.00;;;18.55;100.00
49055;BME280;35405;52.344;14.530;2022-09-01T09:51:37;101546.16;;;19.60;100.00
49055;BME280;35405;52.344;14.530;2022-09-01T09:54:10;101545.66;;;19.67;100.00
49055;BME280;35405;52.344;14.530;2022-09-01T09:56:36;101544.41;;;19.85;100.00
49055;BME280;35405;52.344;14.530;2022-09-01T09:59:03;101544.31;;;19.73;100.00
49055;BME280;35405;52.344;14.530;2022-09-01T10:01:40;101534.28;;;19.21;100.00
49055;BME280;35405;52.344;14.530;2022-09-01T10:04:06;101539.38;;;18.58;100.00
49055;BME280;35405;52.344;14.530;2022-09-01T10:06:40;101542.00;;;18.46;100.00
49055;BME280;35405;52.344;14.530;2022-09-01T10:09:48;101541.38;;;18.75;100.00
49055;BME280;35405;52.344;14.530;2022-09-01T10:11:54;101531.91;;;19.11;100.00
49055;BME280;35405;52.344;14.530;2022-09-01T10:14:22;101532.91;;;19.45;100.00
49055;BME280;35405;52.344;14.530;2022-09-01T10:16:51;101535.97;;;19.43;100.00
49055;BME280;35405;52.344;14.530;2022-09-01T10:19:17;101523.63;;;19.49;100.00
49055;BME280;35405;52.344;14.530;2022-09-01T10:21:44;101534.38;;;19.42;100.00
49055;BME280;35405;52.344;14.530;2022-09-01T10:24:18;101527.31;;;19.24;100.00
49055;BME280;35405;52.344;14.530;2022-09-01T10:26:44;101525.59;;;19.40;100.00
49055;BME280;35405;52.344;14.530;2022-09-01T10:31:45;101527.09;;;19.76;100.00
49055;BME280;35405;52.344;14.530;2022-09-01T10:34:11;101522.19;;;19.81;100.00
49055;BME280;35405;52.344;14.530;2022-09-01T10:36:39;101515.19;;;19.84;100.00
49055;BME280;35405;52.344;14.530;2022-09-01T10:39:09;101514.66;;;19.91;100.00
49055;BME280;35405;52.344;14.530;2022-09-01T10:44:07;101520.69;;;20.14;100.00
49055;BME280;35405;52.344;14.530;2022-09-01T10:49:12;101504.66;;;19.86;100.00
49055;BME280;35405;52.344;14.530;2022-09-01T10:51:42;101519.84;;;20.22;100.00
49055;BME280;35405;52.344;14.530;2022-09-01T10:54:08;101511.66;;;20.25;100.00
49055;BME280;35405;52.344;14.530;2022-09-01T10:56:53;101506.22;;;20.59;100.00
49055;BME280;35405;52.344;14.530;2022-09-01T11:04:11;101514.06;;;20.48;100.00
49055;BME280;35405;52.344;14.530;2022-09-01T11:09:06;101509.91;;;20.42;100.00
49055;BME280;35405;52.344;14.530;2022-09-01T11:11:46;101508.63;;;20.39;100.00
49055;BME280;35405;52.344;14.530;2022-09-01T11:14:18;101509.09;;;20.20;100.00
49055;BME280;35405;52.344;14.530;2022-09-01T11:17:33;101503.16;;;20.30;100.00
49055;BME280;35405;52.344;14.530;2022-09-01T11:19:34;101503.81;;;19.85;100.00
49055;BME280;35405;52.344;14.530;2022-09-01T11:24:46;101498.16;;;19.14;100.00
49055;BME280;35405;52.344;14.530;2022-09-01T11:27:54;101499.34;;;18.95;100.00
49055;BME280;35405;52.344;14.530;2022-09-01T11:32:27;101500.97;;;19.73;100.00
49055;BME280;35405;52.344;14.530;2022-09-01T11:34:56;101497.16;;;19.86;100.00
49055;BME280;35405;52.344;14.530;2022-09-01T11:37:22;101497.50;;;20.06;100.00
49055;BME280;35405;52.344;14.530;2022-09-01T11:39:49;101503.03;;;20.27;100.00
49055;BME280;35405;52.344;14.530;2022-09-01T11:42:17;101502.78;;;20.41;100.00
49055;BME280;35405;52.344;14.530;2022-09-01T11:45:02;101498.66;;;20.47;100.00
49055;BME280;35405;52.344;14.530;2022-09-01T11:47:39;101482.16;;;20.59;100.00
49055;BME280;35405;52.344;14.530;2022-09-01T11:50:06;101486.56;;;20.51;100.00
49055;BME280;35405;52.344;14.530;2022-09-01T11:52:35;101488.88;;;20.70;100.00
49055;BME280;35405;52.344;14.530;2022-09-01T11:55:03;101493.06;;;20.89;100.00
49055;BME280;35405;52.344;14.530;2022-09-01T11:57:30;101494.06;;;20.84;100.00
49055;BME280;35405;52.344;14.530;2022-09-01T11:59:57;101486.84;;;20.92;100.00
49055;BME280;35405;52.344;14.530;2022-09-01T12:02:24;101486.56;;;20.72;100.00
49055;BME280;35405;52.344;14.530;2022-09-01T12:04:51;101498.13;;;20.32;100.00
49055;BME280;35405;52.344;14.530;2022-09-01T12:10:03;101482.13;;;20.92;100.00
49055;BME280;35405;52.344;14.530;2022-09-01T12:12:35;101492.19;;;21.09;100.00
49055;BME280;35405;52.344;14.530;2022-09-01T12:15:03;101489.31;;;20.72;100.00
49055;BME280;35405;52.344;14.530;2022-09-01T12:17:31;101475.19;;;20.86;100.00
49055;BME280;35405;52.344;14.530;2022-09-01T12:20:17;101494.31;;;21.37;99.62
49055;BME280;35405;52.344;14.530;2022-09-01T12:22:42;101486.34;;;21.60;97.51
49055;BME280;35405;52.344;14.530;2022-09-01T12:25:16;101477.34;;;21.63;94.24
49055;BME280;35405;52.344;14.530;2022-09-01T12:27:42;101479.91;;;21.43;93.13
49055;BME280;35405;52.344;14.530;2022-09-01T12:33:10;101476.81;;;20.87;92.58
49055;BME280;35405;52.344;14.530;2022-09-01T12:38:40;101471.88;;;20.60;100.00
49055;BME280;35405;52.344;14.530;2022-09-01T12:41:21;101475.19;;;20.86;100.00
49055;BME280;35405;52.344;14.530;2022-09-01T12:43:46;101477.75;;;20.91;100.00
49055;BME280;35405;52.344;14.530;2022-09-01T12:46:25;101472.28;;;20.49;100.00
49055;BME280;35405;52.344;14.530;2022-09-01T12:49:14;101480.25;;;20.30;100.00
49055;BME280;35405;52.344;14.530;2022-09-01T12:51:40;101475.53;;;20.30;100.00
49055;BME280;35405;52.344;14.530;2022-09-01T12:54:06;101480.19;;;20.60;100.00
49055;BME280;35405;52.344;14.530;2022-09-01T12:56:35;101477.16;;;20.86;100.00
49055;BME280;35405;52.344;14.530;2022-09-01T12:59:13;101474.41;;;20.86;100.00
49055;BME280;35405;52.344;14.530;2022-09-01T13:01:41;101476.50;;;20.55;100.00
49055;BME280;35405;52.344;14.530;2022-09-01T13:04:28;101472.50;;;20.44;100.00
49055;BME280;35405;52.344;14.530;2022-09-01T13:07:02;101478.56;;;20.92;100.00
49055;BME280;35405;52.344;14.530;2022-09-01T13:09:28;101478.19;;;21.51;100.00
49055;BME280;35405;52.344;14.530;2022-09-01T13:12:07;101470.66;;;21.64;100.00
49055;BME280;35405;52.344;14.530;2022-09-01T13:14:32;101475.41;;;21.63;100.00
49055;BME280;35405;52.344;14.530;2022-09-01T13:16:58;101478.97;;;21.64;100.00
49055;BME280;35405;52.344;14.530;2022-09-01T13:19:24;101466.84;;;21.68;100.00
49055;BME280;35405;52.344;14.530;2022-09-01T13:21:58;101463.06;;;21.49;100.00
49055;BME280;35405;52.344;14.530;2022-09-01T13:24:23;101465.84;;;21.49;100.00
49055;BME280;35405;52.344;14.530;2022-09-01T13:26:49;101463.75;;;21.45;100.00
49055;BME280;35405;52.344;14.530;2022-09-01T13:29:19;101458.84;;;21.06;100.00
49055;BME280;35405;52.344;14.530;2022-09-01T13:31:45;101464.00;;;20.83;100.00
49055;BME280;35405;52.344;14.530;2022-09-01T13:34:10;101463.22;;;20.82;100.00
49055;BME280;35405;52.344;14.530;2022-09-01T13:36:36;101465.69;;;20.63;100.00
49055;BME280;35405;52.344;14.530;2022-09-01T13:39:01;101464.19;;;20.65;100.00
49055;BME280;35405;52.344;14.530;2022-09-01T13:41:26;101465.38;;;20.76;100.00
49055;BME280;35405;52.344;14.530;2022-09-01T13:43:51;101456.53;;;20.50;100.00
49055;BME280;35405;52.344;14.530;2022-09-01T13:46:17;101457.94;;;20.56;100.00
49055;BME280;35405;52.344;14.530;2022-09-01T13:48:42;101467.03;;;20.57;100.00
49055;BME280;35405;52.344;14.530;2022-09-01T13:51:08;101461.88;;;20.34;100.00
49055;BME280;35405;52.344;14.530;2022-09-01T13:53:34;101463.91;;;20.25;100.00
49055;BME280;35405;52.344;14.530;2022-09-01T13:55:59;101458.84;;;20.27;100.00
49055;BME280;35405;52.344;14.530;2022-09-01T13:58:24;101459.38;;;20.20;100.00
49055;BME280;35405;52.344;14.530;2022-09-01T14:00:50;101458.97;;;20.09;100.00
49055;BME280;35405;52.344;14.530;2022-09-01T14:03:16;101446.31;;;20.08;100.00
49055;BME280;35405;52.344;14.530;2022-09-01T14:05:43;101453.59;;;20.13;100.00
49055;BME280;35405;52.344;14.530;2022-09-01T14:08:09;101448.94;;;20.05;100.00
49055;BME280;35405;52.344;14.530;2022-09-01T14:10:39;101445.50;;;20.08;100.00
49055;BME280;35405;52.344;14.530;2022-09-01T14:13:05;101444.44;;;20.00;100.00
49055;BME280;35405;52.344;14.530;2022-09-01T14:15:31;101445.78;;;19.94;100.00
49055;BME280;35405;52.344;14.530;2022-09-01T14:17:56;101435.16;;;19.84;100.00
49055;BME280;35405;52.344;14.530;2022-09-01T14:20:25;101434.72;;;19.94;100.00
49055;BME280;35405;52.344;14.530;2022-09-01T14:22:51;101438.03;;;19.87;100.00
49055;BME280;35405;52.344;14.530;2022-09-01T14:25:17;101437.66;;;19.77;100.00
49055;BME280;35405;52.344;14.530;2022-09-01T14:27:43;101432.31;;;19.72;100.00
49055;BME280;35405;52.344;14.530;2022-09-01T14:30:10;101434.72;;;19.73;100.00
49055;BME280;35405;52.344;14.530;2022-09-01T14:32:36;101437.06;;;19.62;100.00
49055;BME280;35405;52.344;14.530;2022-09-01T14:35:02;101438.16;;;19.61;100.00
49055;BME280;35405;52.344;14.530;2022-09-01T14:37:28;101443.09;;;19.64;100.00
49055;BME280;35405;52.344;14.530;2022-09-01T14:39:54;101440.81;;;19.58;100.00
49055;BME280;35405;52.344;14.530;2022-09-01T14:42:23;101441.69;;;19.50;100.00
49055;BME280;35405;52.344;14.530;2022-09-01T14:44:53;101443.16;;;19.47;100.00
49055;BME280;35405;52.344;14.530;2022-09-01T14:47:18;101426.53;;;19.26;100.00
49055;BME280;35405;52.344;14.530;2022-09-01T14:49:43;101434.38;;;19.15;100.00
49055;BME280;35405;52.344;14.530;2022-09-01T14:52:09;101442.81;;;19.10;100.00
49055;BME280;35405;52.344;14.530;2022-09-01T14:54:35;101440.69;;;19.16;100.00
49055;BME280;35405;52.344;14.530;2022-09-01T14:57:00;101431.16;;;19.13;100.00
49055;BME280;35405;52.344;14.530;2022-09-01T14:59:26;101441.22;;;19.09;100.00
49055;BME280;35405;52.344;14.530;2022-09-01T15:01:51;101446.25;;;19.07;100.00
49055;BME280;35405;52.344;14.530;2022-09-01T15:04:17;101443.34;;;19.04;100.00
49055;BME280;35405;52.344;14.530;2022-09-01T15:06:42;101434.16;;;18.91;100.00
49055;BME280;35405;52.344;14.530;2022-09-01T15:09:07;101436.91;;;18.91;100.00
49055;BME280;35405;52.344;14.530;2022-09-01T15:11:33;101434.63;;;18.93;100.00
49055;BME280;35405;52.344;14.530;2022-09-01T15:13:58;101436.63;;;18.84;100.00
49055;BME280;35405;52.344;14.530;2022-09-01T15:19:11;101437.59;;;18.79;100.00
49055;BME280;35405;52.344;14.530;2022-09-01T15:21:38;101437.44;;;18.76;100.00
49055;BME280;35405;52.344;14.530;2022-09-01T15:24:04;101440.69;;;18.78;100.00
49055;BME280;35405;52.344;14.530;2022-09-01T15:26:29;101437.94;;;18.78;100.00
49055;BME280;35405;52.344;14.530;2022-09-01T15:28:55;101447.66;;;18.84;100.00
49055;BME280;35405;52.344;14.530;2022-09-01T15:31:24;101441.28;;;18.83;100.00
49055;BME280;35405;52.344;14.530;2022-09-01T15:33:53;101443.75;;;18.85;100.00
49055;BME280;35405;52.344;14.530;2022-09-01T15:36:22;101447.78;;;18.87;100.00
49055;BME280;35405;52.344;14.530;2022-09-01T15:38:53;101445.69;;;18.84;100.00
49055;BME280;35405;52.344;14.530;2022-09-01T15:41:23;101436.94;;;18.82;100.00
49055;BME280;35405;52.344;14.530;2022-09-01T15:43:49;101440.00;;;18.89;100.00
49055;BME280;35405;52.344;14.530;2022-09-01T15:46:15;101435.97;;;18.87;100.00
49055;BME280;35405;52.344;14.530;2022-09-01T15:48:40;101437.72;;;18.83;100.00
49055;BME280;35405;52.344;14.530;2022-09-01T15:53:45;101436.13;;;18.64;100.00
49055;BME280;35405;52.344;14.530;2022-09-01T15:56:11;101433.59;;;18.50;100.00
49055;BME280;35405;52.344;14.530;2022-09-01T15:58:36;101440.22;;;18.41;100.00
49055;BME280;35405;52.344;14.530;2022-09-01T16:01:01;101439.28;;;18.37;100.00
49055;BME280;35405;52.344;14.530;2022-09-01T16:03:27;101449.34;;;18.33;100.00
49055;BME280;35405;52.344;14.530;2022-09-01T16:05:56;101442.03;;;18.28;100.00
49055;BME280;35405;52.344;14.530;2022-09-01T16:08:23;101443.47;;;18.25;100.00
49055;BME280;35405;52.344;14.530;2022-09-01T16:11:07;101442.69;;;18.16;100.00
49055;BME280;35405;52.344;14.530;2022-09-01T16:13:34;101454.34;;;18.13;100.00
49055;BME280;35405;52.344;14.530;2022-09-01T16:16:16;101438.97;;;18.12;100.00
49055;BME280;35405;52.344;14.530;2022-09-01T16:18:47;101439.47;;;18.05;100.00
49055;BME280;35405;52.344;14.530;2022-09-01T16:23:57;101436.34;;;17.90;100.00
49055;BME280;35405;52.344;14.530;2022-09-01T16:26:28;101435.22;;;17.82;100.00
49055;BME280;35405;52.344;14.530;2022-09-01T16:28:55;101437.81;;;17.78;100.00
49055;BME280;35405;52.344;14.530;2022-09-01T16:31:22;101435.19;;;17.73;100.00
49055;BME280;35405;52.344;14.530;2022-09-01T16:33:53;101445.66;;;17.63;100.00
49055;BME280;35405;52.344;14.530;2022-09-01T16:39:05;101439.69;;;17.52;100.00
49055;BME280;35405;52.344;14.530;2022-09-01T16:41:35;101438.84;;;17.43;100.00
49055;BME280;35405;52.344;14.530;2022-09-01T16:59:53;101436.63;;;17.13;100.00
49055;BME280;35405;52.344;14.530;2022-09-01T17:04:46;101431.22;;;17.00;100.00
49055;BME280;35405;52.344;14.530;2022-09-01T17:14:57;101428.53;;;16.77;100.00
49055;BME280;35405;52.344;14.530;2022-09-01T17:20:10;101430.41;;;16.68;100.00
49055;BME280;35405;52.344;14.530;2022-09-01T17:22:36;101434.28;;;16.67;100.00
49055;BME280;35405;52.344;14.530;2022-09-01T17:25:14;101440.19;;;16.52;100.00
49055;BME280;35405;52.344;14.530;2022-09-01T17:30:12;101439.53;;;16.32;100.00
49055;BME280;35405;52.344;14.530;2022-09-01T17:38:02;101459.03;;;16.08;100.00
49055;BME280;35405;52.344;14.530;2022-09-01T17:51:05;101466.41;;;15.85;100.00
49055;BME280;35405;52.344;14.530;2022-09-01T17:56:30;101468.75;;;15.64;100.00
49055;BME280;35405;52.344;14.530;2022-09-01T18:08:56;101477.69;;;15.42;100.00
49055;BME280;35405;52.344;14.530;2022-09-01T18:16:25;101478.69;;;15.05;100.00
49055;BME280;35405;52.344;14.530;2022-09-01T18:18:52;101481.72;;;15.03;100.00
49055;BME280;35405;52.344;14.530;2022-09-01T18:21:25;101478.50;;;15.01;100.00
49055;BME280;35405;52.344;14.530;2022-09-01T18:24:28;101480.19;;;14.97;100.00
49055;BME280;35405;52.344;14.530;2022-09-01T18:26:48;101480.72;;;14.99;100.00
49055;BME280;35405;52.344;14.530;2022-09-01T18:29:14;101485.38;;;14.99;100.00
49055;BME280;35405;52.344;14.530;2022-09-01T18:44:28;101506.56;;;14.41;100.00
49055;BME280;35405;52.344;14.530;2022-09-01T18:47:02;101514.84;;;14.36;100.00
49055;BME280;35405;52.344;14.530;2022-09-01T18:49:31;101506.81;;;14.26;100.00
49055;BME280;35405;52.344;14.530;2022-09-01T18:52:02;101507.25;;;14.14;100.00
49055;BME280;35405;52.344;14.530;2022-09-01T18:57:02;101514.25;;;14.21;100.00
49055;BME280;35405;52.344;14.530;2022-09-01T18:59:31;101515.88;;;14.22;100.00
49055;BME280;35405;52.344;14.530;2022-09-01T19:02:06;101511.81;;;14.19;100.00
49055;BME280;35405;52.344;14.530;2022-09-01T19:04:40;101512.34;;;14.21;100.00
49055;BME280;35405;52.344;14.530;2022-09-01T19:07:13;101514.47;;;14.24;100.00
49055;BME280;35405;52.344;14.530;2022-09-01T19:09:53;101512.34;;;14.21;100.00
49055;BME280;35405;52.344;14.530;2022-09-01T19:17:50;101506.56;;;14.23;100.00
49055;BME280;35405;52.344;14.530;2022-09-01T19:20:26;101516.19;;;14.20;100.00
49055;BME280;35405;52.344;14.530;2022-09-01T19:23:17;101510.56;;;14.11;100.00
49055;BME280;35405;52.344;14.530;2022-09-01T19:25:40;101519.59;;;14.12;100.00
49055;BME280;35405;52.344;14.530;2022-09-01T19:28:10;101519.19;;;14.00;100.00
49055;BME280;35405;52.344;14.530;2022-09-01T19:30:48;101522.41;;;13.83;100.00
49055;BME280;35405;52.344;14.530;2022-09-01T19:33:16;101527.22;;;13.72;100.00
49055;BME280;35405;52.344;14.530;2022-09-01T19:35:44;101525.47;;;13.57;100.00
49055;BME280;35405;52.344;14.530;2022-09-01T19:38:12;101529.00;;;13.58;100.00
49055;BME280;35405;52.344;14.530;2022-09-01T19:40:41;101532.72;;;13.67;100.00
49055;BME280;35405;52.344;14.530;2022-09-01T19:43:09;101530.41;;;13.55;100.00
49055;BME280;35405;52.344;14.530;2022-09-01T19:45:59;101527.84;;;13.40;100.00
49055;BME280;35405;52.344;14.530;2022-09-01T19:48:36;101524.63;;;13.33;100.00
49055;BME280;35405;52.344;14.530;2022-09-01T19:51:07;101530.72;;;13.24;100.00
